This is the latest recevied weather packets stored in our database for station/object N5ATR. If no packets are shown the sender has not sent any weather packets the latest 1 day(s).
| Time | Temp. | Humidity | Pressure | Rain* | Wind** | Luminosity | Snow |
|---|---|---|---|---|---|---|---|
| 1778022583 | 13.33° C | 54% | 1009.6 hPa | 0 mm | 2.24 m/s, 248° | 362 W/m² | - |
| 1778022281 | 13.33° C | 54% | 1009.5 hPa | 0 mm | 3.13 m/s, 275° | 376 W/m² | - |
| 1778021977 | 12.78° C | 58% | 1009.3 hPa | 0 mm | 1.79 m/s, 242° | 389 W/m² | - |
| 1778021674 | 12.22° C | 59% | 1009.6 hPa | 0 mm | 2.68 m/s, 301° | 404 W/m² | - |
| 1778021370 | 11.67° C | 62% | 1009.6 hPa | 0 mm | 3.58 m/s, 272° | 425 W/m² | - |
| 1778021067 | 12.22° C | 60% | 1009.6 hPa | 0 mm | 2.68 m/s, 260° | 378 W/m² | - |
| 1778020764 | 11.67° C | 64% | 1009.8 hPa | 0 mm | 3.58 m/s, 277° | 441 W/m² | - |
| 1778020461 | 11.67° C | 64% | 1010.3 hPa | 0 mm | 2.24 m/s, 283° | 290 W/m² | - |
| 1778020158 | 11.11° C | 64% | 1010.3 hPa | 0 mm | 3.13 m/s, 292° | 500 W/m² | - |
| 1778019854 | 11.11° C | 59% | 1010.2 hPa | 0 mm | 4.02 m/s, 225° | 258 W/m² | - |
| 1778019550 | 12.22° C | 56% | 1010 hPa | 0 mm | 6.26 m/s, 190° | 352 W/m² | - |
| 1778019248 | 11.67° C | 60% | 1010.2 hPa | 0 mm | 3.13 m/s, 290° | 239 W/m² | - |
| 1778018944 | 12.22° C | 57% | 1010.1 hPa | 0 mm | 4.92 m/s, 261° | 257 W/m² | - |
| 1778018641 | 12.22° C | 57% | 1010.1 hPa | 0 mm | 2.68 m/s, 303° | 242 W/m² | - |
| 1778018339 | 12.22° C | 56% | 1010.1 hPa | 0 mm | 4.92 m/s, 252° | 177 W/m² | - |
| 1778018037 | 12.78° C | 58% | 1010.1 hPa | 0 mm | 4.47 m/s, 273° | 202 W/m² | - |
| 1778017735 | 13.33° C | 57% | 1010.1 hPa | 0 mm | 3.58 m/s, 288° | 173 W/m² | - |
| 1778017432 | 13.89° C | 55% | 1009.8 hPa | 0 mm | 3.13 m/s, 230° | 545 W/m² | - |
| 1778017129 | 13.89° C | 55% | 1010 hPa | 0 mm | 3.58 m/s, 225° | 429 W/m² | - |
| 1778016827 | 13.33° C | 56% | 1010.2 hPa | 0 mm | 2.68 m/s, 237° | 430 W/m² | - |
| 1778016522 | 13.33° C | 58% | 1010.5 hPa | 0 mm | 5.81 m/s, 228° | 182 W/m² | - |
| 1778016220 | 14.44° C | 54% | 1010.3 hPa | 0 mm | 5.36 m/s, 268° | 196 W/m² | - |
| 1778015916 | 14.44° C | 54% | 1010.3 hPa | 0 mm | 3.58 m/s, 245° | 709 W/m² | - |
| 1778015614 | 12.78° C | 57% | 1010.2 hPa | 0 mm | 4.02 m/s, 187° | 311 W/m² | - |
| 1778015310 | 12.78° C | 58% | 1010.3 hPa | 0 mm | 3.58 m/s, 249° | 455 W/m² | - |
* Rain latest hour (hover to see other rain measurements)
** Current wind speed in m/s (hover to see current wind gust speed)